sensor_id;sensor_type;location;lat;lon;timestamp;temperature;humidity
71291;DHT22;59073;51.994;4.448;2022-12-18T00:01:28;-1.82;85.83
71291;DHT22;59073;51.994;4.448;2022-12-18T00:03:55;-1.96;85.76
71291;DHT22;59073;51.994;4.448;2022-12-18T00:06:22;-2.13;87.26
71291;DHT22;59073;51.994;4.448;2022-12-18T00:08:48;-2.23;87.95
71291;DHT22;59073;51.994;4.448;2022-12-18T00:11:17;-2.38;88.92
71291;DHT22;59073;51.994;4.448;2022-12-18T00:13:43;-2.45;89.55
71291;DHT22;59073;51.994;4.448;2022-12-18T00:16:12;-2.40;89.71
71291;DHT22;59073;51.994;4.448;2022-12-18T00:18:38;-2.35;89.50
71291;DHT22;59073;51.994;4.448;2022-12-18T00:21:07;-2.25;89.18
71291;DHT22;59073;51.994;4.448;2022-12-18T00:23:34;-2.21;88.94
71291;DHT22;59073;51.994;4.448;2022-12-18T00:26:02;-2.25;88.55
71291;DHT22;59073;51.994;4.448;2022-12-18T00:28:27;-2.38;89.00
71291;DHT22;59073;51.994;4.448;2022-12-18T00:31:07;-2.25;88.89
71291;DHT22;59073;51.994;4.448;2022-12-18T00:33:33;-2.20;88.60
71291;DHT22;59073;51.994;4.448;2022-12-18T00:36:26;-2.21;88.07
71291;DHT22;59073;51.994;4.448;2022-12-18T00:38:57;-2.20;88.06
71291;DHT22;59073;51.994;4.448;2022-12-18T00:41:24;-2.25;87.95
71291;DHT22;59073;51.994;4.448;2022-12-18T00:44:11;-2.31;88.00
71291;DHT22;59073;51.994;4.448;2022-12-18T00:46:37;-2.41;88.33
71291;DHT22;59073;51.994;4.448;2022-12-18T00:49:03;-2.31;88.05
71291;DHT22;59073;51.994;4.448;2022-12-18T00:51:28;-2.44;88.00
71291;DHT22;59073;51.994;4.448;2022-12-18T00:53:54;-2.40;88.02
71291;DHT22;59073;51.994;4.448;2022-12-18T00:56:19;-2.28;87.59
71291;DHT22;59073;51.994;4.448;2022-12-18T00:58:44;-2.35;87.36
71291;DHT22;59073;51.994;4.448;2022-12-18T01:01:10;-2.21;87.10
71291;DHT22;59073;51.994;4.448;2022-12-18T01:03:35;-2.30;86.99
71291;DHT22;59073;51.994;4.448;2022-12-18T01:06:08;-2.46;87.57
71291;DHT22;59073;51.994;4.448;2022-12-18T01:08:35;-2.54;88.04
71291;DHT22;59073;51.994;4.448;2022-12-18T01:11:07;-2.41;87.88
71291;DHT22;59073;51.994;4.448;2022-12-18T01:13:32;-2.37;87.35
71291;DHT22;59073;51.994;4.448;2022-12-18T01:15:58;-2.31;87.01
71291;DHT22;59073;51.994;4.448;2022-12-18T01:18:23;-2.40;86.69
71291;DHT22;59073;51.994;4.448;2022-12-18T01:20:49;-2.38;86.82
71291;DHT22;59073;51.994;4.448;2022-12-18T01:23:14;-2.34;86.61
71291;DHT22;59073;51.994;4.448;2022-12-18T01:25:39;-2.27;86.45
71291;DHT22;59073;51.994;4.448;2022-12-18T01:28:05;-2.18;85.84
71291;DHT22;59073;51.994;4.448;2022-12-18T01:30:30;-2.20;85.55
71291;DHT22;59073;51.994;4.448;2022-12-18T01:32:56;-2.38;85.90
71291;DHT22;59073;51.994;4.448;2022-12-18T01:35:21;-2.31;86.25
71291;DHT22;59073;51.994;4.448;2022-12-18T01:37:46;-2.48;86.46
71291;DHT22;59073;51.994;4.448;2022-12-18T01:40:12;-2.65;86.73
71291;DHT22;59073;51.994;4.448;2022-12-18T01:42:37;-2.65;87.11
71291;DHT22;59073;51.994;4.448;2022-12-18T01:45:24;-2.73;87.33
71291;DHT22;59073;51.994;4.448;2022-12-18T01:48:03;-2.61;86.66
71291;DHT22;59073;51.994;4.448;2022-12-18T01:50:41;-2.56;86.96
71291;DHT22;59073;51.994;4.448;2022-12-18T01:53:14;-2.49;86.39
71291;DHT22;59073;51.994;4.448;2022-12-18T01:55:48;-2.46;86.24
71291;DHT22;59073;51.994;4.448;2022-12-18T01:58:16;-2.51;86.44
71291;DHT22;59073;51.994;4.448;2022-12-18T02:00:42;-2.56;86.64
71291;DHT22;59073;51.994;4.448;2022-12-18T02:03:08;-2.48;86.06
71291;DHT22;59073;51.994;4.448;2022-12-18T02:05:47;-2.52;86.45
71291;DHT22;59073;51.994;4.448;2022-12-18T02:08:21;-2.87;87.13
71291;DHT22;59073;51.994;4.448;2022-12-18T02:18:38;-3.31;89.28
71291;DHT22;59073;51.994;4.448;2022-12-18T02:21:22;-3.13;89.43
71291;DHT22;59073;51.994;4.448;2022-12-18T02:26:56;-2.64;88.44
71291;DHT22;59073;51.994;4.448;2022-12-18T02:29:34;-2.69;87.87
71291;DHT22;59073;51.994;4.448;2022-12-18T02:32:04;-2.82;88.54
71291;DHT22;59073;51.994;4.448;2022-12-18T02:34:34;-2.97;88.80
71291;DHT22;59073;51.994;4.448;2022-12-18T02:37:08;-2.95;89.00
71291;DHT22;59073;51.994;4.448;2022-12-18T02:39:37;-2.92;88.74
71291;DHT22;59073;51.994;4.448;2022-12-18T02:42:03;-3.08;89.54
71291;DHT22;59073;51.994;4.448;2022-12-18T02:44:34;-2.97;89.61
71291;DHT22;59073;51.994;4.448;2022-12-18T02:47:01;-2.87;89.17
71291;DHT22;59073;51.994;4.448;2022-12-18T02:58:19;-3.08;89.53
71291;DHT22;59073;51.994;4.448;2022-12-18T03:04:02;-2.89;88.99
71291;DHT22;59073;51.994;4.448;2022-12-18T03:06:40;-2.82;88.31
71291;DHT22;59073;51.994;4.448;2022-12-18T03:09:12;-2.97;87.94
71291;DHT22;59073;51.994;4.448;2022-12-18T03:11:42;-2.95;88.54
71291;DHT22;59073;51.994;4.448;2022-12-18T03:14:30;-3.00;88.44
71291;DHT22;59073;51.994;4.448;2022-12-18T03:17:02;-2.93;88.10
71291;DHT22;59073;51.994;4.448;2022-12-18T03:19:32;-3.11;87.78
71291;DHT22;59073;51.994;4.448;2022-12-18T03:22:02;-3.26;88.52
71291;DHT22;59073;51.994;4.448;2022-12-18T03:24:31;-3.23;88.87
71291;DHT22;59073;51.994;4.448;2022-12-18T03:27:02;-3.11;88.80
71291;DHT22;59073;51.994;4.448;2022-12-18T03:29:38;-3.14;89.04
71291;DHT22;59073;51.994;4.448;2022-12-18T03:32:14;-3.28;89.01
71291;DHT22;59073;51.994;4.448;2022-12-18T03:34:43;-3.38;89.07
71291;DHT22;59073;51.994;4.448;2022-12-18T03:37:10;-3.36;89.59
71291;DHT22;59073;51.994;4.448;2022-12-18T03:39:36;-3.28;89.70
71291;DHT22;59073;51.994;4.448;2022-12-18T03:42:25;-3.14;88.99
71291;DHT22;59073;51.994;4.448;2022-12-18T03:44:55;-3.06;88.41
71291;DHT22;59073;51.994;4.448;2022-12-18T03:53:14;-2.97;86.20
71291;DHT22;59073;51.994;4.448;2022-12-18T03:55:44;-3.18;86.83
71291;DHT22;59073;51.994;4.448;2022-12-18T03:58:13;-3.26;87.20
71291;DHT22;59073;51.994;4.448;2022-12-18T04:00:42;-3.37;88.13
71291;DHT22;59073;51.994;4.448;2022-12-18T04:03:09;-3.26;88.08
71291;DHT22;59073;51.994;4.448;2022-12-18T04:05:37;-3.28;86.63
71291;DHT22;59073;51.994;4.448;2022-12-18T04:08:03;-3.36;87.16
71291;DHT22;59073;51.994;4.448;2022-12-18T04:10:29;-3.61;88.61
71291;DHT22;59073;51.994;4.448;2022-12-18T04:12:58;-3.69;88.25
71291;DHT22;59073;51.994;4.448;2022-12-18T04:15:24;-3.82;88.93
71291;DHT22;59073;51.994;4.448;2022-12-18T04:17:50;-3.82;89.44
71291;DHT22;59073;51.994;4.448;2022-12-18T04:20:16;-3.62;89.15
71291;DHT22;59073;51.994;4.448;2022-12-18T04:22:42;-3.30;88.28
71291;DHT22;59073;51.994;4.448;2022-12-18T04:25:08;-3.26;87.01
71291;DHT22;59073;51.994;4.448;2022-12-18T04:27:34;-3.38;87.11
71291;DHT22;59073;51.994;4.448;2022-12-18T04:30:00;-3.59;87.75
71291;DHT22;59073;51.994;4.448;2022-12-18T04:32:26;-3.34;87.42
71291;DHT22;59073;51.994;4.448;2022-12-18T04:34:51;-3.52;87.37
71291;DHT22;59073;51.994;4.448;2022-12-18T04:37:16;-3.31;87.47
71291;DHT22;59073;51.994;4.448;2022-12-18T04:39:42;-3.40;86.75
71291;DHT22;59073;51.994;4.448;2022-12-18T04:42:07;-3.33;86.79
71291;DHT22;59073;51.994;4.448;2022-12-18T04:44:33;-3.21;86.37
71291;DHT22;59073;51.994;4.448;2022-12-18T04:46:58;-3.10;86.05
71291;DHT22;59073;51.994;4.448;2022-12-18T04:49:23;-2.96;85.24
71291;DHT22;59073;51.994;4.448;2022-12-18T04:51:49;-3.06;83.82
71291;DHT22;59073;51.994;4.448;2022-12-18T04:54:14;-3.10;84.05
71291;DHT22;59073;51.994;4.448;2022-12-18T04:56:40;-3.21;84.75
71291;DHT22;59073;51.994;4.448;2022-12-18T04:59:05;-3.36;84.52
71291;DHT22;59073;51.994;4.448;2022-12-18T05:01:31;-3.34;85.25
71291;DHT22;59073;51.994;4.448;2022-12-18T05:03:56;-3.48;85.42
71291;DHT22;59073;51.994;4.448;2022-12-18T05:06:21;-3.48;85.88
71291;DHT22;59073;51.994;4.448;2022-12-18T05:08:47;-3.75;86.23
71291;DHT22;59073;51.994;4.448;2022-12-18T05:11:14;-3.61;86.65
71291;DHT22;59073;51.994;4.448;2022-12-18T05:13:41;-3.85;86.47
71291;DHT22;59073;51.994;4.448;2022-12-18T05:16:07;-3.93;87.07
71291;DHT22;59073;51.994;4.448;2022-12-18T05:18:32;-3.89;86.80
71291;DHT22;59073;51.994;4.448;2022-12-18T05:20:58;-3.75;86.21
71291;DHT22;59073;51.994;4.448;2022-12-18T05:23:24;-3.74;85.99
71291;DHT22;59073;51.994;4.448;2022-12-18T05:25:58;-3.69;86.11
71291;DHT22;59073;51.994;4.448;2022-12-18T05:28:26;-3.82;85.80
71291;DHT22;59073;51.994;4.448;2022-12-18T05:30:57;-3.75;85.99
71291;DHT22;59073;51.994;4.448;2022-12-18T05:33:24;-4.00;86.35
71291;DHT22;59073;51.994;4.448;2022-12-18T05:35:51;-4.02;86.65
71291;DHT22;59073;51.994;4.448;2022-12-18T05:38:18;-4.07;86.77
71291;DHT22;59073;51.994;4.448;2022-12-18T05:40:43;-3.99;86.83
71291;DHT22;59073;51.994;4.448;2022-12-18T05:43:09;-4.03;86.42
71291;DHT22;59073;51.994;4.448;2022-12-18T05:45:37;-4.27;87.02
71291;DHT22;59073;51.994;4.448;2022-12-18T05:48:03;-4.23;87.58
71291;DHT22;59073;51.994;4.448;2022-12-18T05:50:29;-4.17;87.13
71291;DHT22;59073;51.994;4.448;2022-12-18T05:52:54;-4.29;87.13
71291;DHT22;59073;51.994;4.448;2022-12-18T05:55:20;-4.21;87.33
71291;DHT22;59073;51.994;4.448;2022-12-18T05:57:45;-4.23;87.17
71291;DHT22;59073;51.994;4.448;2022-12-18T06:00:11;-4.06;87.14
71291;DHT22;59073;51.994;4.448;2022-12-18T06:02:36;-4.09;86.14
71291;DHT22;59073;51.994;4.448;2022-12-18T06:05:02;-4.10;85.91
71291;DHT22;59073;51.994;4.448;2022-12-18T06:07:28;-4.24;86.32
71291;DHT22;59073;51.994;4.448;2022-12-18T06:09:53;-4.17;86.53
71291;DHT22;59073;51.994;4.448;2022-12-18T06:12:18;-4.23;86.44
71291;DHT22;59073;51.994;4.448;2022-12-18T06:14:44;-4.14;86.21
71291;DHT22;59073;51.994;4.448;2022-12-18T06:17:09;-4.23;85.44
71291;DHT22;59073;51.994;4.448;2022-12-18T06:19:35;-4.27;86.39
71291;DHT22;59073;51.994;4.448;2022-12-18T06:22:00;-4.13;85.60
71291;DHT22;59073;51.994;4.448;2022-12-18T06:24:25;-4.17;85.46
71291;DHT22;59073;51.994;4.448;2022-12-18T06:26:51;-4.11;85.48
71291;DHT22;59073;51.994;4.448;2022-12-18T06:29:16;-4.16;85.16
71291;DHT22;59073;51.994;4.448;2022-12-18T06:31:42;-4.23;85.40
71291;DHT22;59073;51.994;4.448;2022-12-18T06:34:07;-4.26;85.60
71291;DHT22;59073;51.994;4.448;2022-12-18T06:36:32;-4.27;85.52
71291;DHT22;59073;51.994;4.448;2022-12-18T06:38:59;-4.34;85.95
71291;DHT22;59073;51.994;4.448;2022-12-18T06:41:24;-4.40;85.99
71291;DHT22;59073;51.994;4.448;2022-12-18T06:43:51;-4.46;85.89
71291;DHT22;59073;51.994;4.448;2022-12-18T06:46:16;-4.48;86.23
71291;DHT22;59073;51.994;4.448;2022-12-18T06:48:42;-4.56;86.32
71291;DHT22;59073;51.994;4.448;2022-12-18T06:51:07;-4.64;86.64
71291;DHT22;59073;51.994;4.448;2022-12-18T06:53:33;-4.71;86.65
71291;DHT22;59073;51.994;4.448;2022-12-18T06:56:04;-4.61;86.65
71291;DHT22;59073;51.994;4.448;2022-12-18T06:58:30;-4.48;86.33
71291;DHT22;59073;51.994;4.448;2022-12-18T07:01:00;-4.41;85.94
71291;DHT22;59073;51.994;4.448;2022-12-18T07:03:26;-4.53;86.09
71291;DHT22;59073;51.994;4.448;2022-12-18T07:05:51;-4.64;86.22
71291;DHT22;59073;51.994;4.448;2022-12-18T07:08:17;-4.72;86.32
71291;DHT22;59073;51.994;4.448;2022-12-18T07:10:43;-4.74;86.44
71291;DHT22;59073;51.994;4.448;2022-12-18T07:13:09;-4.64;86.44
71291;DHT22;59073;51.994;4.448;2022-12-18T07:15:35;-4.67;86.17
71291;DHT22;59073;51.994;4.448;2022-12-18T07:18:00;-4.84;86.34
71291;DHT22;59073;51.994;4.448;2022-12-18T07:20:25;-4.85;86.61
71291;DHT22;59073;51.994;4.448;2022-12-18T07:22:51;-4.91;86.87
71291;DHT22;59073;51.994;4.448;2022-12-18T07:25:16;-4.89;86.76
71291;DHT22;59073;51.994;4.448;2022-12-18T07:27:42;-4.95;86.58
71291;DHT22;59073;51.994;4.448;2022-12-18T07:30:08;-4.88;86.75
71291;DHT22;59073;51.994;4.448;2022-12-18T07:32:33;-4.81;85.94
71291;DHT22;59073;51.994;4.448;2022-12-18T07:34:59;-4.78;86.15
71291;DHT22;59073;51.994;4.448;2022-12-18T07:37:25;-4.71;85.96
71291;DHT22;59073;51.994;4.448;2022-12-18T07:39:50;-4.61;85.90
71291;DHT22;59073;51.994;4.448;2022-12-18T07:42:15;-4.48;85.23
71291;DHT22;59073;51.994;4.448;2022-12-18T07:44:57;-4.44;85.24
71291;DHT22;59073;51.994;4.448;2022-12-18T07:47:22;-4.46;84.99
71291;DHT22;59073;51.994;4.448;2022-12-18T07:49:48;-4.51;85.29
71291;DHT22;59073;51.994;4.448;2022-12-18T07:52:13;-4.40;84.72
71291;DHT22;59073;51.994;4.448;2022-12-18T07:54:39;-4.36;84.00
71291;DHT22;59073;51.994;4.448;2022-12-18T07:57:05;-4.37;84.54
71291;DHT22;59073;51.994;4.448;2022-12-18T07:59:31;-4.21;83.81
71291;DHT22;59073;51.994;4.448;2022-12-18T08:01:56;-4.19;83.84
71291;DHT22;59073;51.994;4.448;2022-12-18T08:04:22;-4.24;83.69
71291;DHT22;59073;51.994;4.448;2022-12-18T08:06:47;-4.19;83.57
71291;DHT22;59073;51.994;4.448;2022-12-18T08:09:13;-4.14;83.21
71291;DHT22;59073;51.994;4.448;2022-12-18T08:12:03;-4.24;83.55
71291;DHT22;59073;51.994;4.448;2022-12-18T08:14:38;-4.27;83.54
71291;DHT22;59073;51.994;4.448;2022-12-18T08:17:04;-4.16;83.24
71291;DHT22;59073;51.994;4.448;2022-12-18T08:19:30;-4.13;83.32
71291;DHT22;59073;51.994;4.448;2022-12-18T08:21:55;-4.16;83.90
71291;DHT22;59073;51.994;4.448;2022-12-18T08:24:22;-4.16;83.49
71291;DHT22;59073;51.994;4.448;2022-12-18T08:26:48;-4.05;83.07
71291;DHT22;59073;51.994;4.448;2022-12-18T08:29:13;-4.10;83.62
71291;DHT22;59073;51.994;4.448;2022-12-18T08:31:38;-4.16;83.99
71291;DHT22;59073;51.994;4.448;2022-12-18T08:34:04;-4.06;83.78
71291;DHT22;59073;51.994;4.448;2022-12-18T08:36:29;-3.95;82.89
71291;DHT22;59073;51.994;4.448;2022-12-18T08:38:55;-3.88;82.67
71291;DHT22;59073;51.994;4.448;2022-12-18T08:41:21;-3.82;82.94
71291;DHT22;59073;51.994;4.448;2022-12-18T08:43:46;-3.82;82.67
71291;DHT22;59073;51.994;4.448;2022-12-18T08:46:34;-3.81;82.61
71291;DHT22;59073;51.994;4.448;2022-12-18T08:49:00;-3.79;82.46
71291;DHT22;59073;51.994;4.448;2022-12-18T08:51:25;-3.74;82.66
71291;DHT22;59073;51.994;4.448;2022-12-18T08:53:51;-3.54;81.99
71291;DHT22;59073;51.994;4.448;2022-12-18T08:56:16;-3.47;82.15
71291;DHT22;59073;51.994;4.448;2022-12-18T08:58:42;-3.54;81.51
71291;DHT22;59073;51.994;4.448;2022-12-18T09:01:09;-3.40;81.65
71291;DHT22;59073;51.994;4.448;2022-12-18T09:03:36;-3.54;81.82
71291;DHT22;59073;51.994;4.448;2022-12-18T09:06:01;-3.61;82.38
71291;DHT22;59073;51.994;4.448;2022-12-18T09:08:27;-3.51;82.16
71291;DHT22;59073;51.994;4.448;2022-12-18T09:10:53;-3.68;82.35
71291;DHT22;59073;51.994;4.448;2022-12-18T09:13:19;-3.61;82.80
71291;DHT22;59073;51.994;4.448;2022-12-18T09:15:47;-3.68;83.11
71291;DHT22;59073;51.994;4.448;2022-12-18T09:18:14;-3.81;83.87
71291;DHT22;59073;51.994;4.448;2022-12-18T09:20:39;-3.81;83.59
71291;DHT22;59073;51.994;4.448;2022-12-18T09:23:05;-3.90;83.83
71291;DHT22;59073;51.994;4.448;2022-12-18T09:25:32;-3.78;84.13
71291;DHT22;59073;51.994;4.448;2022-12-18T09:28:18;-3.65;82.78
71291;DHT22;59073;51.994;4.448;2022-12-18T09:30:48;-3.61;83.32
71291;DHT22;59073;51.994;4.448;2022-12-18T09:33:15;-3.58;83.56
71291;DHT22;59073;51.994;4.448;2022-12-18T09:35:43;-3.48;82.97
71291;DHT22;59073;51.994;4.448;2022-12-18T09:38:16;-3.50;83.69
71291;DHT22;59073;51.994;4.448;2022-12-18T09:40:59;-3.40;82.96
71291;DHT22;59073;51.994;4.448;2022-12-18T09:43:45;-3.40;83.23
71291;DHT22;59073;51.994;4.448;2022-12-18T09:46:23;-3.36;83.20
71291;DHT22;59073;51.994;4.448;2022-12-18T09:48:54;-3.18;82.97
71291;DHT22;59073;51.994;4.448;2022-12-18T09:51:29;-3.07;82.34
71291;DHT22;59073;51.994;4.448;2022-12-18T09:54:06;-3.06;81.66
71291;DHT22;59073;51.994;4.448;2022-12-18T09:56:38;-3.07;82.33
71291;DHT22;59073;51.994;4.448;2022-12-18T09:59:05;-3.10;82.01
71291;DHT22;59073;51.994;4.448;2022-12-18T10:01:32;-3.08;81.91
71291;DHT22;59073;51.994;4.448;2022-12-18T10:03:59;-2.90;81.32
71291;DHT22;59073;51.994;4.448;2022-12-18T10:06:39;-2.93;82.17
71291;DHT22;59073;51.994;4.448;2022-12-18T10:09:32;-2.82;81.13
71291;DHT22;59073;51.994;4.448;2022-12-18T10:12:25;-2.83;81.90
71291;DHT22;59073;51.994;4.448;2022-12-18T10:15:12;-2.83;81.49
71291;DHT22;59073;51.994;4.448;2022-12-18T10:17:54;-2.82;82.07
71291;DHT22;59073;51.994;4.448;2022-12-18T10:20:27;-3.01;82.27
71291;DHT22;59073;51.994;4.448;2022-12-18T10:23:13;-3.03;83.17
71291;DHT22;59073;51.994;4.448;2022-12-18T10:25:55;-3.00;82.07
71291;DHT22;59073;51.994;4.448;2022-12-18T10:28:26;-2.95;82.57
71291;DHT22;59073;51.994;4.448;2022-12-18T10:30:52;-3.03;82.09
71291;DHT22;59073;51.994;4.448;2022-12-18T10:33:21;-2.82;82.46
71291;DHT22;59073;51.994;4.448;2022-12-18T10:35:50;-2.13;80.72
71291;DHT22;59073;51.994;4.448;2022-12-18T10:40:59;-2.41;81.52
71291;DHT22;59073;51.994;4.448;2022-12-18T10:43:31;-2.46;81.39
71291;DHT22;59073;51.994;4.448;2022-12-18T10:51:31;-2.38;81.05
71291;DHT22;59073;51.994;4.448;2022-12-18T10:54:17;-2.35;81.25
71291;DHT22;59073;51.994;4.448;2022-12-18T10:56:44;-2.44;81.63
71291;DHT22;59073;51.994;4.448;2022-12-18T10:59:12;-2.23;82.09
71291;DHT22;59073;51.994;4.448;2022-12-18T11:01:57;-2.14;80.62
71291;DHT22;59073;51.994;4.448;2022-12-18T11:04:31;-2.04;80.27
71291;DHT22;59073;51.994;4.448;2022-12-18T11:07:07;-2.00;80.67
71291;DHT22;59073;51.994;4.448;2022-12-18T11:09:35;-2.10;79.57
71291;DHT22;59073;51.994;4.448;2022-12-18T11:14:51;-1.91;79.30
71291;DHT22;59073;51.994;4.448;2022-12-18T11:17:28;-1.96;79.78
71291;DHT22;59073;51.994;4.448;2022-12-18T11:20:00;-2.05;80.82
71291;DHT22;59073;51.994;4.448;2022-12-18T11:22:34;-1.89;79.74
71291;DHT22;59073;51.994;4.448;2022-12-18T11:27:40;-1.86;79.29
71291;DHT22;59073;51.994;4.448;2022-12-18T11:30:21;-1.87;80.31
71291;DHT22;59073;51.994;4.448;2022-12-18T11:32:56;-1.70;79.98
71291;DHT22;59073;51.994;4.448;2022-12-18T11:38:31;-1.79;79.47
71291;DHT22;59073;51.994;4.448;2022-12-18T11:44:02;-1.86;80.20
71291;DHT22;59073;51.994;4.448;2022-12-18T11:46:46;-1.82;80.51
71291;DHT22;59073;51.994;4.448;2022-12-18T11:49:24;-1.65;80.50
71291;DHT22;59073;51.994;4.448;2022-12-18T11:52:12;-1.82;79.55
71291;DHT22;59073;51.994;4.448;2022-12-18T11:54:39;-1.76;79.72
71291;DHT22;59073;51.994;4.448;2022-12-18T12:08:22;-1.60;79.23
71291;DHT22;59073;51.994;4.448;2022-12-18T12:11:42;-1.56;79.33
71291;DHT22;59073;51.994;4.448;2022-12-18T12:14:34;-1.53;78.85
71291;DHT22;59073;51.994;4.448;2022-12-18T12:17:22;-1.48;79.17
71291;DHT22;59073;51.994;4.448;2022-12-18T12:19:59;-1.39;78.79
71291;DHT22;59073;51.994;4.448;2022-12-18T12:22:55;-1.22;77.95
71291;DHT22;59073;51.994;4.448;2022-12-18T12:25:46;-1.18;78.42
71291;DHT22;59073;51.994;4.448;2022-12-18T12:31:17;-1.31;78.98
71291;DHT22;59073;51.994;4.448;2022-12-18T12:33:51;-1.18;78.85
71291;DHT22;59073;51.994;4.448;2022-12-18T12:39:11;-1.12;77.32
71291;DHT22;59073;51.994;4.448;2022-12-18T12:41:42;-1.07;77.13
71291;DHT22;59073;51.994;4.448;2022-12-18T12:44:42;-1.02;77.40
71291;DHT22;59073;51.994;4.448;2022-12-18T12:47:20;-0.97;77.46
71291;DHT22;59073;51.994;4.448;2022-12-18T12:49:48;-0.94;77.87
71291;DHT22;59073;51.994;4.448;2022-12-18T12:52:26;-1.00;77.93
71291;DHT22;59073;51.994;4.448;2022-12-18T12:54:54;-0.94;77.84
71291;DHT22;59073;51.994;4.448;2022-12-18T12:57:34;-1.05;77.89
71291;DHT22;59073;51.994;4.448;2022-12-18T13:00:07;-1.14;78.84
71291;DHT22;59073;51.994;4.448;2022-12-18T13:03:15;-1.12;78.31
71291;DHT22;59073;51.994;4.448;2022-12-18T13:05:54;-1.07;78.04
71291;DHT22;59073;51.994;4.448;2022-12-18T13:08:39;-1.00;78.40
71291;DHT22;59073;51.994;4.448;2022-12-18T13:14:26;-1.08;78.70
71291;DHT22;59073;51.994;4.448;2022-12-18T13:19:44;-0.74;78.20
71291;DHT22;59073;51.994;4.448;2022-12-18T13:22:28;-0.84;78.41
71291;DHT22;59073;51.994;4.448;2022-12-18T13:24:54;-0.83;78.37
71291;DHT22;59073;51.994;4.448;2022-12-18T13:27:45;-0.87;78.07
71291;DHT22;59073;51.994;4.448;2022-12-18T13:43:49;-0.54;77.87
71291;DHT22;59073;51.994;4.448;2022-12-18T13:48:56;-0.64;77.70
71291;DHT22;59073;51.994;4.448;2022-12-18T13:51:23;-0.54;77.91
71291;DHT22;59073;51.994;4.448;2022-12-18T13:53:53;-0.67;77.83
71291;DHT22;59073;51.994;4.448;2022-12-18T13:56:28;-0.57;78.01
71291;DHT22;59073;51.994;4.448;2022-12-18T13:59:32;-0.59;77.68
71291;DHT22;59073;51.994;4.448;2022-12-18T14:02:00;-0.59;77.99
71291;DHT22;59073;51.994;4.448;2022-12-18T14:04:32;-0.70;78.17
71291;DHT22;59073;51.994;4.448;2022-12-18T14:07:04;-0.63;77.85
71291;DHT22;59073;51.994;4.448;2022-12-18T14:09:36;-0.66;78.12
71291;DHT22;59073;51.994;4.448;2022-12-18T14:12:03;-0.59;77.80
71291;DHT22;59073;51.994;4.448;2022-12-18T14:14:50;-0.52;77.90
71291;DHT22;59073;51.994;4.448;2022-12-18T14:17:16;-0.49;77.99
71291;DHT22;59073;51.994;4.448;2022-12-18T14:19:46;-0.49;77.45
71291;DHT22;59073;51.994;4.448;2022-12-18T14:22:20;-0.48;77.50
71291;DHT22;59073;51.994;4.448;2022-12-18T14:24:47;-0.44;77.26
71291;DHT22;59073;51.994;4.448;2022-12-18T14:27:24;-0.56;77.12
71291;DHT22;59073;51.994;4.448;2022-12-18T14:29:51;-0.48;77.76
71291;DHT22;59073;51.994;4.448;2022-12-18T14:32:19;-0.52;77.29
71291;DHT22;59073;51.994;4.448;2022-12-18T14:34:47;-0.57;77.41
71291;DHT22;59073;51.994;4.448;2022-12-18T14:37:17;-0.44;77.07
71291;DHT22;59073;51.994;4.448;2022-12-18T14:39:58;-0.44;77.26
71291;DHT22;59073;51.994;4.448;2022-12-18T14:42:27;-0.50;77.49
71291;DHT22;59073;51.994;4.448;2022-12-18T14:45:54;-0.46;77.85
71291;DHT22;59073;51.994;4.448;2022-12-18T14:48:06;-0.37;77.49
71291;DHT22;59073;51.994;4.448;2022-12-18T14:50:32;-0.39;77.42
71291;DHT22;59073;51.994;4.448;2022-12-18T14:52:57;-0.23;77.15
71291;DHT22;59073;51.994;4.448;2022-12-18T14:55:23;-0.32;77.37
71291;DHT22;59073;51.994;4.448;2022-12-18T14:57:52;-0.22;77.27
71291;DHT22;59073;51.994;4.448;2022-12-18T15:00:21;-0.29;77.30
71291;DHT22;59073;51.994;4.448;2022-12-18T15:02:54;-0.33;76.55
71291;DHT22;59073;51.994;4.448;2022-12-18T15:05:26;-0.21;76.96
71291;DHT22;59073;51.994;4.448;2022-12-18T15:07:55;-0.13;76.37
71291;DHT22;59073;51.994;4.448;2022-12-18T15:10:29;-0.12;76.39
71291;DHT22;59073;51.994;4.448;2022-12-18T15:18:10;-0.11;76.28
71291;DHT22;59073;51.994;4.448;2022-12-18T15:23:27;-0.06;76.35
71291;DHT22;59073;51.994;4.448;2022-12-18T15:25:56;0.05;75.79
71291;DHT22;59073;51.994;4.448;2022-12-18T15:28:23;-0.11;75.93
71291;DHT22;59073;51.994;4.448;2022-12-18T15:33:34;0.20;75.03
71291;DHT22;59073;51.994;4.448;2022-12-18T15:36:22;0.15;75.05
71291;DHT22;59073;51.994;4.448;2022-12-18T15:38:53;0.19;75.18
71291;DHT22;59073;51.994;4.448;2022-12-18T15:41:21;0.19;75.04
71291;DHT22;59073;51.994;4.448;2022-12-18T15:43:49;0.13;75.09
71291;DHT22;59073;51.994;4.448;2022-12-18T15:46:16;0.16;75.43
71291;DHT22;59073;51.994;4.448;2022-12-18T15:48:47;0.20;75.28
71291;DHT22;59073;51.994;4.448;2022-12-18T15:51:26;0.10;75.20
71291;DHT22;59073;51.994;4.448;2022-12-18T15:53:56;0.22;74.53
71291;DHT22;59073;51.994;4.448;2022-12-18T15:56:22;0.22;74.71
71291;DHT22;59073;51.994;4.448;2022-12-18T15:59:20;0.22;75.27
71291;DHT22;59073;51.994;4.448;2022-12-18T16:01:48;0.23;74.82
71291;DHT22;59073;51.994;4.448;2022-12-18T16:04:15;0.22;74.64
71291;DHT22;59073;51.994;4.448;2022-12-18T16:06:42;0.22;74.48
71291;DHT22;59073;51.994;4.448;2022-12-18T16:09:08;0.30;74.35
71291;DHT22;59073;51.994;4.448;2022-12-18T16:11:36;0.28;74.56
71291;DHT22;59073;51.994;4.448;2022-12-18T16:14:19;0.20;74.95
71291;DHT22;59073;51.994;4.448;2022-12-18T16:16:47;0.33;74.72
71291;DHT22;59073;51.994;4.448;2022-12-18T16:19:13;0.32;74.45
71291;DHT22;59073;51.994;4.448;2022-12-18T16:21:39;0.23;74.77
71291;DHT22;59073;51.994;4.448;2022-12-18T16:24:05;0.28;74.90
71291;DHT22;59073;51.994;4.448;2022-12-18T16:26:30;0.29;75.21
71291;DHT22;59073;51.994;4.448;2022-12-18T16:28:56;0.28;75.25
71291;DHT22;59073;51.994;4.448;2022-12-18T16:31:21;0.38;75.42
71291;DHT22;59073;51.994;4.448;2022-12-18T16:33:48;0.32;75.23
71291;DHT22;59073;51.994;4.448;2022-12-18T16:36:13;0.33;75.04
71291;DHT22;59073;51.994;4.448;2022-12-18T16:38:39;0.40;75.27
71291;DHT22;59073;51.994;4.448;2022-12-18T16:41:18;0.33;75.87
71291;DHT22;59073;51.994;4.448;2022-12-18T16:43:59;0.36;75.52
71291;DHT22;59073;51.994;4.448;2022-12-18T16:46:26;0.35;75.84
71291;DHT22;59073;51.994;4.448;2022-12-18T16:48:51;0.40;75.48
71291;DHT22;59073;51.994;4.448;2022-12-18T16:51:17;0.45;75.35
71291;DHT22;59073;51.994;4.448;2022-12-18T16:53:42;0.46;75.05
71291;DHT22;59073;51.994;4.448;2022-12-18T16:56:08;0.54;75.48
71291;DHT22;59073;51.994;4.448;2022-12-18T16:58:33;0.47;75.85
71291;DHT22;59073;51.994;4.448;2022-12-18T17:00:59;0.45;75.59
71291;DHT22;59073;51.994;4.448;2022-12-18T17:03:25;0.46;75.79
71291;DHT22;59073;51.994;4.448;2022-12-18T17:05:50;0.50;75.49
71291;DHT22;59073;51.994;4.448;2022-12-18T17:08:16;0.50;75.50
71291;DHT22;59073;51.994;4.448;2022-12-18T17:10:41;0.56;75.41
71291;DHT22;59073;51.994;4.448;2022-12-18T17:13:07;0.50;75.50
71291;DHT22;59073;51.994;4.448;2022-12-18T17:15:36;0.53;76.10
71291;DHT22;59073;51.994;4.448;2022-12-18T17:18:02;0.57;75.80
71291;DHT22;59073;51.994;4.448;2022-12-18T17:20:29;0.50;76.09
71291;DHT22;59073;51.994;4.448;2022-12-18T17:22:55;0.57;75.49
71291;DHT22;59073;51.994;4.448;2022-12-18T17:25:20;0.56;76.09
71291;DHT22;59073;51.994;4.448;2022-12-18T17:27:46;0.53;76.05
71291;DHT22;59073;51.994;4.448;2022-12-18T17:30:12;0.63;76.00